Time;durP1;ratioP1;P1;durP2;ratioP2;P2;SDS_P1;SDS_P2;PMS_P1;PMS_P2;Temp;Humidity;BMP_temperature;BMP_pressure;BME280_temperature;BME280_humidity;BME280_pressure;Samples;Min_cycle;Max_cycle;Signal;HPM_P1;HPM_P2
2022/07/22 00:02:14;;;;;;;7.10;6.50;;;23.80;95.70;;;;;;5071751;28;20460;-49
2022/07/22 00:04:41;;;;;;;9.23;7.03;;;23.70;95.60;;;;;;5072303;28;20441;-49
2022/07/22 00:07:07;;;;;;;7.60;6.87;;;23.60;95.60;;;;;;5072489;28;20452;-49
2022/07/22 00:09:35;;;;;;;6.70;5.97;;;23.80;95.80;;;;;;5072206;28;20428;-50
2022/07/22 00:12:02;;;;;;;6.80;6.30;;;23.80;95.70;;;;;;5072214;28;20817;-49
2022/07/22 00:14:28;;;;;;;7.93;7.13;;;23.80;95.70;;;;;;5072507;28;20481;-50
2022/07/22 00:16:55;;;;;;;7.27;6.20;;;23.80;95.70;;;;;;5072381;28;20431;-50
2022/07/22 00:19:24;;;;;;;7.20;6.53;;;23.80;95.50;;;;;;5071847;28;20436;-50
2022/07/22 00:21:50;;;;;;;7.27;6.43;;;23.80;95.40;;;;;;5071817;28;20785;-51
2022/07/22 00:24:17;;;;;;;8.10;6.40;;;23.80;95.20;;;;;;5072157;28;20445;-50
2022/07/22 00:26:45;;;;;;;6.83;6.33;;;23.90;95.10;;;;;;5072122;28;20441;-50
2022/07/22 00:29:12;;;;;;;8.53;6.90;;;23.80;94.90;;;;;;5070270;28;20941;-50
2022/07/22 00:31:39;;;;;;;6.80;6.20;;;23.90;94.90;;;;;;5070294;28;20459;-50
2022/07/22 00:34:06;;;;;;;7.30;6.00;;;23.90;94.90;;;;;;5070411;28;20487;-50
2022/07/22 00:36:33;;;;;;;7.80;6.17;;;23.80;94.70;;;;;;5071951;28;20536;-49
2022/07/22 00:39:03;;;;;;;7.20;6.50;;;23.80;94.50;;;;;;5070430;28;20457;-50
2022/07/22 00:41:30;;;;;;;6.30;5.80;;;23.80;94.50;;;;;;5071974;28;20440;-50
2022/07/22 00:44:00;;;;;;;7.03;6.33;;;23.80;94.40;;;;;;5070409;28;20480;-50
2022/07/22 00:46:28;;;;;;;6.43;5.83;;;23.80;94.40;;;;;;5070263;28;20972;-51
2022/07/22 00:48:55;;;;;;;6.27;5.67;;;23.70;94.30;;;;;;5069833;28;20449;-50
2022/07/22 00:51:22;;;;;;;6.43;5.70;;;23.70;94.20;;;;;;5070056;28;20459;-49
2022/07/22 00:53:49;;;;;;;6.17;5.57;;;23.70;94.20;;;;;;5071195;28;20482;-50
2022/07/22 00:56:17;;;;;;;7.10;5.20;;;23.70;94.10;;;;;;5071431;28;20923;-48
2022/07/22 00:58:45;;;;;;;5.63;5.10;;;23.70;94.10;;;;;;5069484;28;20828;-50
2022/07/22 01:01:14;;;;;;;6.33;5.57;;;23.70;94.10;;;;;;5070028;28;20957;-49
2022/07/22 01:03:41;;;;;;;5.83;5.23;;;23.70;94.20;;;;;;5071203;28;20471;-49
2022/07/22 01:06:09;;;;;;;7.07;5.60;;;24.20;94.40;;;;;;5071376;28;20530;-49
2022/07/22 01:08:36;;;;;;;6.43;5.70;;;23.60;94.10;;;;;;5071025;28;20436;-50
2022/07/22 01:11:09;;;;;;;6.13;5.60;;;23.60;94.20;;;;;;5071459;28;20797;-49
2022/07/22 01:13:36;;;;;;;6.53;5.87;;;23.70;94.20;;;;;;5069694;28;20480;-49
2022/07/22 01:16:23;;;;;;;6.00;5.40;;;23.60;94.30;;;;;;5071261;28;20438;-49
2022/07/22 01:18:50;;;;;;;7.67;6.50;;;23.60;94.50;;;;;;5069535;28;20451;-49
2022/07/22 01:21:21;;;;;;;5.97;5.37;;;23.50;94.40;;;;;;5069943;28;20839;-50
2022/07/22 01:23:48;;;;;;;5.60;5.10;;;23.70;94.60;;;;;;5070136;28;20471;-50
2022/07/22 01:26:17;;;;;;;6.20;5.60;;;23.60;94.60;;;;;;5069928;28;20445;-49
2022/07/22 01:28:43;;;;;;;7.57;4.80;;;23.50;94.60;;;;;;5069450;28;20467;-49
2022/07/22 01:31:11;;;;;;;6.47;5.27;;;23.40;94.60;;;;;;5069548;28;20497;-49
2022/07/22 01:33:38;;;;;;;5.83;5.33;;;23.40;94.70;;;;;;5070598;28;20475;-49
2022/07/22 01:36:06;;;;;;;6.40;4.70;;;23.40;94.70;;;;;;5071351;28;20930;-49
2022/07/22 01:38:34;;;;;;;5.67;5.07;;;23.40;94.80;;;;;;5069344;28;20510;-50
2022/07/22 01:41:01;;;;;;;6.70;4.90;;;23.00;94.60;;;;;;5069655;28;20485;-49
2022/07/22 01:43:29;;;;;;;6.03;4.40;;;23.30;94.80;;;;;;5069730;28;20467;-49
2022/07/22 01:45:56;;;;;;;5.20;4.70;;;23.30;94.90;;;;;;5069678;28;20475;-49
2022/07/22 01:48:24;;;;;;;6.30;4.90;;;23.20;95.00;;;;;;5069404;28;20460;-50
2022/07/22 01:50:51;;;;;;;5.40;4.90;;;23.30;95.10;;;;;;5069668;28;20843;-49
2022/07/22 01:53:18;;;;;;;6.00;4.63;;;23.30;95.10;;;;;;5069455;28;20500;-49
2022/07/22 01:55:48;;;;;;;5.80;5.00;;;23.20;95.20;;;;;;5069719;28;20810;-49
2022/07/22 01:58:16;;;;;;;7.63;5.40;;;23.20;95.30;;;;;;5069631;28;20555;-49
2022/07/22 02:00:43;;;;;;;5.40;4.90;;;23.20;95.40;;;;;;5068872;28;20484;-49
2022/07/22 02:03:11;;;;;;;6.50;5.03;;;23.20;95.40;;;;;;5070732;28;20457;-49
2022/07/22 02:05:38;;;;;;;7.87;5.10;;;23.20;95.50;;;;;;5070747;28;20476;-49
2022/07/22 02:08:15;;;;;;;4.83;4.43;;;23.10;95.60;;;;;;5070863;28;20458;-49
2022/07/22 02:11:07;;;;;;;5.40;4.90;;;23.10;95.60;;;;;;5041951;28;20471;-49
2022/07/22 02:13:35;;;;;;;5.47;5.00;;;23.60;96.00;;;;;;5069289;28;20475;-49
2022/07/22 02:16:03;;;;;;;5.53;5.03;;;23.00;95.80;;;;;;5069289;28;20482;-49
2022/07/22 02:18:29;;;;;;;5.83;5.33;;;23.00;95.90;;;;;;5068904;28;20954;-50
2022/07/22 02:20:56;;;;;;;5.10;4.60;;;23.00;96.00;;;;;;5069272;28;20450;-50
2022/07/22 02:23:22;;;;;;;7.07;5.40;;;23.50;96.30;;;;;;5069155;28;20833;-50
2022/07/22 02:25:49;;;;;;;5.27;4.87;;;22.90;96.10;;;;;;5069362;28;20458;-50
2022/07/22 02:28:18;;;;;;;5.83;5.33;;;23.10;96.30;;;;;;5070548;28;20437;-49
2022/07/22 02:30:45;;;;;;;8.47;5.67;;;22.90;96.30;;;;;;5068795;28;20609;-49
2022/07/22 02:33:14;;;;;;;6.50;5.33;;;23.00;96.50;;;;;;5068838;28;20493;-48
2022/07/22 02:35:41;;;;;;;7.37;5.90;;;22.80;96.50;;;;;;5072223;28;20983;-49
2022/07/22 02:38:08;;;;;;;6.13;5.53;;;22.80;96.60;;;;;;5072766;28;21016;-49
2022/07/22 02:40:35;;;;;;;6.20;5.60;;;22.80;96.70;;;;;;5072450;28;21051;-49
2022/07/22 02:43:02;;;;;;;9.60;5.60;;;22.70;96.90;;;;;;5073210;28;20482;-50
2022/07/22 02:45:30;;;;;;;7.80;7.00;;;22.90;97.10;;;;;;5072936;28;20454;-49
2022/07/22 02:47:58;;;;;;;6.00;5.50;;;22.60;97.20;;;;;;5073065;28;20456;-50
2022/07/22 02:50:25;;;;;;;8.40;5.40;;;22.80;97.30;;;;;;5073002;28;20861;-50
2022/07/22 02:52:52;;;;;;;6.67;6.10;;;22.60;97.40;;;;;;5072560;28;20478;-50
2022/07/22 02:55:20;;;;;;;6.80;6.20;;;23.10;97.70;;;;;;5072473;28;20554;-50
2022/07/22 02:57:48;;;;;;;7.00;6.30;;;22.00;97.30;;;;;;5072537;28;20447;-49
2022/07/22 03:00:16;;;;;;;7.40;6.23;;;22.70;97.70;;;;;;5072135;28;20766;-49
2022/07/22 03:02:47;;;;;;;7.00;6.40;;;22.60;97.80;;;;;;5073635;28;20478;-50
2022/07/22 03:05:13;;;;;;;7.83;7.00;;;22.50;97.80;;;;;;5072300;28;20450;-48
2022/07/22 03:07:49;;;;;;;7.33;6.63;;;22.50;98.00;;;;;;5072652;28;20500;-50
2022/07/22 03:10:15;;;;;;;7.90;6.50;;;22.40;98.00;;;;;;5072030;28;20450;-49
2022/07/22 03:12:42;;;;;;;7.77;7.03;;;22.40;98.10;;;;;;5073571;28;20460;-50
2022/07/22 03:15:10;;;;;;;7.77;7.17;;;22.00;98.10;;;;;;5072062;28;20859;-49
2022/07/22 03:17:38;;;;;;;8.17;7.40;;;22.40;98.40;;;;;;5072261;28;20451;-49
2022/07/22 03:20:10;;;;;;;10.20;7.63;;;22.40;98.40;;;;;;5071686;28;20446;-49
2022/07/22 03:22:37;;;;;;;8.20;7.40;;;22.40;98.50;;;;;;5101604;22;20480;-48
2022/07/22 03:25:05;;;;;;;8.90;7.50;;;22.20;98.50;;;;;;5093000;28;20538;-49
2022/07/22 03:27:32;;;;;;;8.10;7.30;;;22.30;98.70;;;;;;5092973;28;20967;-49
2022/07/22 03:29:59;;;;;;;8.23;7.43;;;22.30;98.80;;;;;;5092742;28;20493;-49
2022/07/22 03:32:25;;;;;;;7.87;7.20;;;22.20;98.80;;;;;;5092703;28;20625;-50
2022/07/22 03:34:53;;;;;;;8.27;7.53;;;22.20;99.00;;;;;;5092765;28;20479;-47
2022/07/22 03:37:21;;;;;;;8.60;7.70;;;22.10;99.10;;;;;;5092525;28;20509;-48
2022/07/22 03:39:48;;;;;;;8.80;8.00;;;22.20;99.20;;;;;;5092313;28;20866;-49
2022/07/22 03:42:14;;;;;;;8.77;7.97;;;22.40;99.70;;;;;;5093684;28;20431;-48
2022/07/22 03:44:47;;;;;;;8.20;7.50;;;22.20;99.30;;;;;;5092671;28;20463;-48
2022/07/22 03:47:18;;;;;;;8.80;8.00;;;22.10;99.30;;;;;;5091782;28;20448;-48
2022/07/22 03:49:47;;;;;;;8.10;7.40;;;22.10;99.50;;;;;;5092232;28;20448;-49
2022/07/22 03:52:14;;;;;;;9.07;7.77;;;22.20;99.60;;;;;;5092378;28;20452;-48
2022/07/22 03:54:43;;;;;;;8.60;7.70;;;22.00;99.50;;;;;;5092469;28;20475;-49
2022/07/22 03:57:10;;;;;;;10.00;9.10;;;21.70;99.40;;;;;;5092262;28;20463;-49
2022/07/22 03:59:37;;;;;;;8.90;8.10;;;22.30;99.60;;;;;;5091751;28;20557;-49
2022/07/22 04:02:05;;;;;;;9.37;8.57;;;22.30;99.60;;;;;;5092369;28;20978;-49
2022/07/22 04:04:32;;;;;;;9.70;8.70;;;22.30;99.60;;;;;;5092339;28;20444;-48
2022/07/22 04:06:59;;;;;;;10.80;9.90;;;22.40;99.60;;;;;;5092005;28;20448;-48
2022/07/22 04:09:32;;;;;;;10.70;9.73;;;22.40;99.60;;;;;;5091762;28;20851;-48
2022/07/22 04:12:01;;;;;;;10.10;9.10;;;22.30;99.50;;;;;;5093346;28;20873;-49
2022/07/22 04:14:28;;;;;;;8.73;8.03;;;22.40;99.50;;;;;;5091915;28;20515;-48
2022/07/22 04:16:57;;;;;;;10.23;9.40;;;22.40;99.50;;;;;;5091990;28;20452;-49
2022/07/22 04:19:24;;;;;;;10.43;9.53;;;22.40;99.50;;;;;;5091453;28;20828;-48
2022/07/22 04:21:53;;;;;;;11.80;9.20;;;22.00;99.30;;;;;;5091629;28;20484;-49
2022/07/22 04:24:22;;;;;;;10.97;9.83;;;22.40;99.50;;;;;;5092001;28;20473;-49
2022/07/22 04:26:49;;;;;;;11.17;8.63;;;22.00;99.40;;;;;;5091824;28;20952;-48
2022/07/22 04:29:17;;;;;;;9.47;8.70;;;22.40;99.60;;;;;;5091523;28;20487;-49
2022/07/22 04:31:44;;;;;;;11.83;10.80;;;22.50;99.60;;;;;;5091599;28;20544;-49
2022/07/22 04:34:14;;;;;;;10.93;9.83;;;22.50;99.60;;;;;;5091735;28;20484;-49
2022/07/22 04:36:41;;;;;;;11.07;10.17;;;22.50;99.60;;;;;;5091731;28;20450;-49
2022/07/22 04:39:09;;;;;;;10.87;9.80;;;22.50;99.60;;;;;;5091398;28;21017;-48
2022/07/22 04:41:37;;;;;;;11.83;10.70;;;22.50;99.60;;;;;;5091383;28;20506;-48
2022/07/22 04:44:04;;;;;;;13.10;10.70;;;22.50;99.60;;;;;;5091444;28;20968;-48
2022/07/22 04:46:34;;;;;;;12.83;11.53;;;22.70;99.60;;;;;;5091464;28;20449;-48
2022/07/22 04:49:01;;;;;;;12.20;11.00;;;22.60;99.50;;;;;;5090956;28;20452;-48
2022/07/22 04:51:27;;;;;;;11.27;10.30;;;22.60;99.50;;;;;;5091496;28;20956;-48
2022/07/22 04:54:01;;;;;;;12.90;11.50;;;22.60;99.50;;;;;;5091065;28;20568;-49
2022/07/22 04:56:28;;;;;;;13.17;12.07;;;22.70;99.40;;;;;;5091280;28;20544;-49
2022/07/22 04:58:56;;;;;;;12.97;11.80;;;22.60;99.30;;;;;;5090624;28;20494;-48
2022/07/22 05:01:26;;;;;;;13.80;12.50;;;22.20;99.10;;;;;;5091091;28;20526;-48
2022/07/22 05:03:55;;;;;;;12.30;11.10;;;22.50;99.40;;;;;;5090923;28;20968;-49
2022/07/22 05:06:23;;;;;;;13.37;11.97;;;22.50;99.40;;;;;;5090931;28;20447;-48
2022/07/22 05:08:52;;;;;;;13.10;11.93;;;22.50;99.40;;;;;;5090384;28;20528;-48
2022/07/22 05:11:19;;;;;;;12.93;11.70;;;22.50;99.80;;;;;;5090862;28;20449;-47
2022/07/22 05:13:48;;;;;;;13.13;11.80;;;22.40;99.50;;;;;;5090799;28;20469;-48
2022/07/22 05:16:15;;;;;;;13.73;11.70;;;22.50;99.60;;;;;;5090763;28;20468;-48
2022/07/22 05:18:41;;;;;;;12.90;11.70;;;22.50;99.50;;;;;;5090527;28;20446;-48
2022/07/22 05:21:12;;;;;;;12.60;11.30;;;22.50;99.50;;;;;;5090691;28;20511;-48
2022/07/22 05:23:39;;;;;;;12.87;11.77;;;22.60;99.40;;;;;;5090594;28;20478;-49
2022/07/22 05:26:06;;;;;;;14.20;12.90;;;22.60;99.30;;;;;;5090877;28;20450;-48
2022/07/22 05:28:34;;;;;;;12.43;11.33;;;22.70;99.70;;;;;;5090022;28;20833;-50
2022/07/22 05:31:01;;;;;;;12.00;10.90;;;22.80;99.20;;;;;;5090476;28;20456;-48
2022/07/22 05:33:28;;;;;;;12.90;11.80;;;22.80;99.10;;;;;;5090660;28;20475;-48
2022/07/22 05:36:05;;;;;;;15.50;12.07;;;22.90;98.90;;;;;;5090760;28;20477;-48
2022/07/22 05:38:38;;;;;;;12.60;11.50;;;22.90;98.70;;;;;;5090371;28;20798;-49
2022/07/22 05:41:06;;;;;;;18.00;14.73;;;23.00;98.70;;;;;;5090591;28;20450;-49
2022/07/22 05:43:33;;;;;;;13.23;11.83;;;23.00;98.50;;;;;;5090639;28;20465;-49
2022/07/22 05:46:01;;;;;;;13.47;12.13;;;23.10;98.50;;;;;;5090287;28;20478;-47
2022/07/22 05:48:28;;;;;;;16.17;11.03;;;23.00;98.20;;;;;;5091460;28;20767;-48
2022/07/22 05:50:54;;;;;;;13.17;12.07;;;23.00;98.20;;;;;;5090497;28;20868;-47
2022/07/22 05:53:21;;;;;;;11.90;10.70;;;23.10;98.10;;;;;;5090180;28;20462;-51
2022/07/22 05:55:49;;;;;;;11.43;10.40;;;23.10;98.10;;;;;;5090320;28;21003;-47
2022/07/22 05:58:16;;;;;;;11.73;10.60;;;23.20;98.10;;;;;;5090146;28;20444;-48
2022/07/22 06:00:43;;;;;;;14.47;11.67;;;23.30;98.00;;;;;;5089825;28;20851;-49
2022/07/22 06:03:09;;;;;;;11.77;10.70;;;23.30;97.90;;;;;;5090211;28;20991;-50
2022/07/22 06:05:36;;;;;;;13.57;10.90;;;23.50;97.70;;;;;;5090365;28;20833;-49
2022/07/22 06:08:04;;;;;;;10.80;9.90;;;23.60;97.60;;;;;;5090433;28;20450;-49
2022/07/22 06:10:38;;;;;;;12.23;10.60;;;23.70;97.40;;;;;;5093450;28;20455;-49
2022/07/22 06:13:06;;;;;;;11.27;10.27;;;23.70;97.20;;;;;;5095690;28;20458;-49
2022/07/22 06:15:33;;;;;;;11.87;10.70;;;23.80;96.90;;;;;;5094038;28;20479;-49
2022/07/22 06:18:01;;;;;;;12.70;11.50;;;24.00;96.70;;;;;;5093703;28;20456;-49
2022/07/22 06:20:28;;;;;;;13.80;10.67;;;24.00;96.50;;;;;;5093464;28;20924;-50
2022/07/22 06:22:54;;;;;;;12.23;11.13;;;24.30;96.30;;;;;;5094010;28;20489;-48
2022/07/22 06:25:23;;;;;;;11.10;10.10;;;24.40;96.00;;;;;;5094525;28;20490;-49
2022/07/22 06:27:50;;;;;;;13.63;9.37;;;24.40;95.90;;;;;;5093776;28;20503;-48
2022/07/22 06:30:18;;;;;;;10.50;9.53;;;24.60;95.80;;;;;;5093574;28;20493;-49
2022/07/22 06:32:45;;;;;;;15.23;10.57;;;24.50;95.60;;;;;;5095340;28;20521;-50
2022/07/22 06:35:11;;;;;;;13.20;11.90;;;24.50;95.40;;;;;;5094856;28;21021;-49
2022/07/22 06:37:38;;;;;;;11.27;10.07;;;24.50;95.30;;;;;;5095186;28;20432;-49
2022/07/22 06:40:07;;;;;;;11.40;10.40;;;24.50;95.30;;;;;;5093462;28;20809;-50
2022/07/22 06:42:47;;;;;;;10.70;9.60;;;24.50;95.10;;;;;;5093698;28;20570;-50
2022/07/22 06:45:35;;;;;;;10.80;10.00;;;24.60;95.10;;;;;;5093777;28;20522;-49
2022/07/22 06:48:06;;;;;;;13.23;10.90;;;24.70;95.00;;;;;;5093668;28;20488;-49
2022/07/22 06:50:33;;;;;;;12.20;11.00;;;24.70;94.90;;;;;;5093313;28;20872;-49
2022/07/22 06:53:03;;;;;;;11.40;10.40;;;24.80;94.60;;;;;;5093546;28;20472;-50
2022/07/22 06:55:30;;;;;;;11.07;10.03;;;24.90;94.50;;;;;;5093464;28;20484;-48
2022/07/22 06:58:03;;;;;;;11.60;10.70;;;24.90;94.30;;;;;;5093292;28;20453;-48
2022/07/22 07:00:30;;;;;;;10.40;9.60;;;25.00;94.20;;;;;;5094171;28;20949;-48
2022/07/22 07:03:17;;;;;;;10.70;9.80;;;25.00;94.10;;;;;;5093593;28;20472;-49
2022/07/22 07:05:43;;;;;;;10.83;9.83;;;25.10;94.00;;;;;;5094237;28;20448;-49
2022/07/22 07:08:10;;;;;;;14.13;12.73;;;25.10;93.90;;;;;;5093097;28;20526;-49
2022/07/22 07:10:37;;;;;;;9.70;8.90;;;25.20;93.90;;;;;;5092617;28;20506;-50
2022/07/22 07:13:12;;;;;;;10.07;9.10;;;25.20;93.80;;;;;;5093258;28;20460;-48
2022/07/22 07:15:42;;;;;;;10.30;9.20;;;25.40;93.50;;;;;;5093049;28;20913;-50
2022/07/22 07:18:10;;;;;;;9.70;8.70;;;25.50;93.30;;;;;;5092646;28;20933;-49
2022/07/22 07:20:39;;;;;;;9.67;8.77;;;25.60;93.00;;;;;;5091109;28;20453;-49
2022/07/22 07:23:07;;;;;;;14.23;9.53;;;25.70;92.70;;;;;;5092538;28;20472;-51
2022/07/22 07:25:38;;;;;;;10.30;9.40;;;25.90;92.60;;;;;;5092592;28;20474;-48
2022/07/22 07:28:05;;;;;;;12.53;10.07;;;26.00;92.20;;;;;;5092745;28;20444;-49
2022/07/22 07:30:47;;;;;;;9.20;8.40;;;26.10;91.90;;;;;;5093898;28;20530;-49
2022/07/22 07:33:14;;;;;;;10.43;9.33;;;26.20;91.60;;;;;;5093833;28;20436;-49
2022/07/22 07:35:42;;;;;;;9.00;8.10;;;26.30;91.20;;;;;;5092107;28;20468;-48
2022/07/22 07:38:08;;;;;;;8.83;7.93;;;26.30;90.90;;;;;;5093594;28;20437;-49
2022/07/22 07:40:37;;;;;;;10.87;9.57;;;26.30;90.90;;;;;;5091972;28;20459;-49
2022/07/22 07:43:04;;;;;;;10.50;7.97;;;26.30;90.70;;;;;;5092034;28;20492;-48
2022/07/22 07:45:32;;;;;;;8.40;7.67;;;26.30;90.50;;;;;;5092180;28;20440;-49
2022/07/22 07:48:00;;;;;;;8.10;7.30;;;26.30;90.30;;;;;;5091892;28;20535;-49
2022/07/22 07:50:27;;;;;;;8.77;7.90;;;26.40;90.30;;;;;;5091772;28;20476;-49
2022/07/22 07:52:57;;;;;;;11.63;8.00;;;26.30;90.30;;;;;;5091949;28;20464;-49
2022/07/22 07:55:25;;;;;;;9.07;7.60;;;26.50;90.20;;;;;;5091741;28;20670;-49
2022/07/22 07:57:52;;;;;;;8.27;7.47;;;26.50;90.20;;;;;;5091741;28;20449;-49
2022/07/22 08:00:23;;;;;;;8.70;7.90;;;26.60;90.10;;;;;;5091692;28;20441;-48
2022/07/22 08:02:51;;;;;;;7.47;6.77;;;26.60;89.90;;;;;;5091786;28;20479;-49
2022/07/22 08:05:19;;;;;;;7.90;7.20;;;26.70;89.80;;;;;;5091879;28;20437;-48
2022/07/22 08:07:46;;;;;;;7.47;6.80;;;26.60;89.30;;;;;;5091826;28;20445;-48
2022/07/22 08:10:14;;;;;;;8.40;5.90;;;26.60;89.00;;;;;;5091635;28;20464;-49
2022/07/22 08:12:57;;;;;;;6.43;5.93;;;26.60;88.90;;;;;;5091743;28;20883;-49
2022/07/22 08:15:43;;;;;;;7.10;6.37;;;26.60;88.70;;;;;;5091852;28;20485;-48
2022/07/22 08:18:17;;;;;;;6.50;6.00;;;26.60;88.50;;;;;;5091668;28;20451;-49
2022/07/22 08:20:43;;;;;;;7.80;6.83;;;26.60;88.30;;;;;;5092756;28;20925;-49
2022/07/22 08:23:12;;;;;;;6.60;6.00;;;26.50;88.20;;;;;;5091346;28;20487;-48
2022/07/22 08:25:42;;;;;;;6.27;5.70;;;26.60;88.30;;;;;;5091371;28;20449;-49
2022/07/22 08:28:09;;;;;;;7.17;6.13;;;26.60;87.80;;;;;;5091442;28;20448;-49
2022/07/22 08:30:36;;;;;;;5.93;5.43;;;26.80;87.50;;;;;;5091220;28;20488;-48
2022/07/22 08:33:02;;;;;;;7.70;7.00;;;26.70;87.10;;;;;;5090603;28;20511;-48
2022/07/22 08:35:29;;;;;;;6.70;6.00;;;26.80;86.90;;;;;;5091269;28;20496;-48
2022/07/22 08:37:56;;;;;;;7.17;5.70;;;26.90;86.80;;;;;;5091257;28;20520;-48
2022/07/22 08:40:24;;;;;;;6.00;5.40;;;27.00;86.30;;;;;;5090969;28;20507;-49
2022/07/22 08:42:53;;;;;;;9.10;5.30;;;27.00;85.80;;;;;;5091067;28;20478;-49
2022/07/22 08:45:20;;;;;;;6.07;5.47;;;27.10;85.40;;;;;;5091305;28;20571;-48
2022/07/22 08:47:50;;;;;;;6.37;5.77;;;27.10;85.30;;;;;;5091432;28;20541;-48
2022/07/22 08:50:25;;;;;;;4.60;4.10;;;26.90;84.80;;;;;;5090607;28;20475;-49
2022/07/22 08:52:57;;;;;;;5.90;5.30;;;26.80;84.80;;;;;;5090309;28;20968;-47
2022/07/22 08:55:25;;;;;;;6.67;5.80;;;26.60;84.80;;;;;;5090936;28;20995;-49
2022/07/22 08:57:53;;;;;;;6.17;4.97;;;26.50;84.90;;;;;;5090581;28;20453;-49
2022/07/22 09:00:22;;;;;;;7.57;5.40;;;26.40;85.40;;;;;;5090172;28;20451;-49
2022/07/22 09:02:50;;;;;;;6.10;5.60;;;26.40;85.80;;;;;;5091038;28;20457;-49
2022/07/22 09:05:18;;;;;;;6.43;5.83;;;26.20;86.20;;;;;;5091967;28;20429;-48
2022/07/22 09:07:46;;;;;;;6.63;5.93;;;26.30;86.50;;;;;;5092444;28;20422;-49
2022/07/22 09:10:20;;;;;;;7.13;6.20;;;26.20;87.00;;;;;;5090840;28;20514;-48
2022/07/22 09:13:09;;;;;;;7.23;6.13;;;26.30;87.30;;;;;;5091992;28;20472;-49
2022/07/22 09:15:56;;;;;;;5.20;4.73;;;26.40;87.40;;;;;;5092164;28;20457;-49
2022/07/22 09:18:47;;;;;;;6.23;5.20;;;26.40;86.90;;;;;;5091779;28;20532;-49
2022/07/22 09:21:32;;;;;;;5.67;4.30;;;26.50;86.50;;;;;;5092261;28;20431;-50
2022/07/22 09:24:30;;;;;;;4.60;4.20;;;26.50;86.40;;;;;;5114769;22;20502;-49
2022/07/22 09:27:07;;;;;;;5.27;4.77;;;26.50;86.30;;;;;;5089798;28;20503;-49
2022/07/22 09:29:52;;;;;;;5.77;5.27;;;26.30;86.30;;;;;;5089264;28;20831;-50
2022/07/22 09:32:20;;;;;;;6.73;4.43;;;26.50;86.60;;;;;;5090859;28;20459;-50
2022/07/22 09:35:05;;;;;;;5.27;4.73;;;26.40;86.90;;;;;;5069044;28;20534;-50
2022/07/22 09:37:47;;;;;;;6.30;4.20;;;26.40;87.20;;;;;;5069072;28;20770;-50
2022/07/22 09:40:15;;;;;;;5.10;4.43;;;26.30;87.60;;;;;;5069300;28;20445;-50
2022/07/22 09:42:47;;;;;;;6.67;5.70;;;26.20;88.00;;;;;;5069202;28;20965;-50
2022/07/22 09:45:15;;;;;;;5.77;5.27;;;26.10;88.30;;;;;;5068375;28;20508;-50
2022/07/22 09:47:43;;;;;;;5.33;4.83;;;26.20;88.40;;;;;;5069178;28;20533;-50
2022/07/22 09:50:32;;;;;;;5.20;4.47;;;26.30;88.30;;;;;;5070147;28;20833;-50
2022/07/22 09:53:14;;;;;;;8.10;4.30;;;26.50;87.70;;;;;;5070215;28;20898;-49
2022/07/22 09:55:46;;;;;;;5.80;4.80;;;26.50;87.30;;;;;;5069037;28;20481;-50
2022/07/22 09:58:13;;;;;;;4.00;3.70;;;26.60;86.70;;;;;;5069065;28;20541;-49
2022/07/22 10:00:43;;;;;;;3.57;3.27;;;26.70;86.30;;;;;;5068472;28;20544;-50
2022/07/22 10:03:13;;;;;;;3.73;3.43;;;27.00;85.90;;;;;;5068852;28;20466;-50
2022/07/22 10:05:42;;;;;;;3.63;3.33;;;27.10;85.20;;;;;;5068760;28;20451;-52
2022/07/22 10:08:10;;;;;;;5.73;3.87;;;27.20;84.80;;;;;;5070304;28;20429;-50
2022/07/22 10:10:39;;;;;;;4.40;4.00;;;27.30;84.50;;;;;;5070061;28;20524;-52
2022/07/22 10:13:07;;;;;;;4.40;4.00;;;27.30;84.60;;;;;;5068693;28;20542;-52
2022/07/22 10:15:38;;;;;;;6.30;4.33;;;27.20;84.70;;;;;;5068403;28;20855;-52
2022/07/22 10:18:09;;;;;;;6.47;3.60;;;27.30;85.10;;;;;;5068988;28;20441;-52
2022/07/22 10:20:39;;;;;;;7.40;3.60;;;27.20;85.00;;;;;;5069135;28;20545;-52
2022/07/22 10:23:07;;;;;;;4.67;3.23;;;27.50;84.80;;;;;;5068703;28;20491;-52
2022/07/22 10:25:49;;;;;;;2.83;2.63;;;27.30;84.30;;;;;;5068834;28;20464;-51
2022/07/22 10:28:23;;;;;;;3.37;2.90;;;27.40;84.20;;;;;;5068834;28;20448;-52
2022/07/22 10:30:50;;;;;;;3.27;2.77;;;27.40;84.40;;;;;;5070302;28;20439;-51
2022/07/22 10:33:22;;;;;;;3.73;3.33;;;27.40;84.50;;;;;;5069935;28;20453;-51
2022/07/22 10:35:58;;;;;;;3.00;2.70;;;27.40;83.90;;;;;;5068662;28;20561;-52
2022/07/22 10:38:25;;;;;;;5.90;3.53;;;27.40;83.50;;;;;;5068526;28;21033;-52
2022/07/22 10:40:56;;;;;;;3.40;3.10;;;27.40;83.50;;;;;;5070019;28;20773;-52
2022/07/22 10:43:25;;;;;;;4.10;3.70;;;27.40;83.20;;;;;;5069806;28;20552;-54
2022/07/22 10:45:55;;;;;;;3.17;2.70;;;27.50;82.90;;;;;;5069846;28;20524;-52
2022/07/22 10:48:26;;;;;;;3.57;3.10;;;27.60;82.90;;;;;;5069947;28;20540;-55
2022/07/22 10:51:08;;;;;;;3.43;3.13;;;27.70;82.90;;;;;;5070339;28;20870;-52
2022/07/22 10:53:46;;;;;;;3.77;3.20;;;28.20;82.50;;;;;;5067877;28;20529;-52
2022/07/22 10:56:17;;;;;;;3.93;3.43;;;27.80;81.80;;;;;;5071697;28;20484;-52
2022/07/22 10:58:52;;;;;;;3.93;2.97;;;27.80;81.90;;;;;;5073180;28;20461;-52
2022/07/22 11:01:23;;;;;;;3.30;3.00;;;27.70;81.50;;;;;;5073652;28;20493;-53
2022/07/22 11:03:52;;;;;;;3.90;3.60;;;27.50;82.10;;;;;;5071880;28;20977;-53
2022/07/22 11:06:25;;;;;;;3.60;3.30;;;27.50;82.30;;;;;;5073063;28;20428;-53
2022/07/22 11:08:53;;;;;;;7.40;3.13;;;27.40;83.20;;;;;;5072820;28;20443;-53
2022/07/22 11:11:33;;;;;;;7.13;3.70;;;27.20;84.10;;;;;;5071906;28;20465;-53
2022/07/22 11:14:00;;;;;;;4.20;3.87;;;27.10;84.60;;;;;;5071973;28;20473;-53
2022/07/22 11:16:29;;;;;;;3.80;3.50;;;27.00;84.80;;;;;;5071319;28;20488;-53
2022/07/22 11:18:58;;;;;;;3.77;3.30;;;26.90;85.00;;;;;;5071570;28;20957;-51
2022/07/22 11:21:27;;;;;;;6.30;3.67;;;27.00;84.70;;;;;;5073177;28;20437;-53
2022/07/22 11:23:56;;;;;;;4.03;3.73;;;27.10;84.70;;;;;;5072902;28;20465;-53
2022/07/22 11:26:27;;;;;;;5.83;4.30;;;27.10;85.00;;;;;;5073112;28;20458;-53
2022/07/22 11:28:55;;;;;;;4.50;4.10;;;27.10;85.10;;;;;;5072454;28;20433;-53
2022/07/22 11:31:22;;;;;;;4.13;3.83;;;27.10;84.90;;;;;;5071321;28;20454;-53
2022/07/22 11:33:49;;;;;;;4.33;3.93;;;27.10;85.10;;;;;;5072875;28;20455;-52
2022/07/22 11:36:18;;;;;;;4.77;4.37;;;27.20;85.00;;;;;;5071163;28;20570;-53
2022/07/22 11:38:47;;;;;;;5.77;5.13;;;27.30;84.40;;;;;;5072636;28;20425;-53
2022/07/22 11:41:16;;;;;;;5.17;4.67;;;27.30;84.00;;;;;;5072847;28;20433;-53
2022/07/22 11:43:45;;;;;;;5.10;4.60;;;27.40;84.20;;;;;;5072382;28;20465;-52
2022/07/22 11:46:13;;;;;;;7.47;4.30;;;27.40;84.00;;;;;;5071148;28;20461;-52
2022/07/22 11:48:41;;;;;;;5.93;3.77;;;27.60;83.90;;;;;;5071085;28;20445;-52
2022/07/22 11:51:10;;;;;;;4.40;4.10;;;27.70;83.10;;;;;;5072626;28;20492;-52
2022/07/22 11:53:38;;;;;;;6.40;4.40;;;27.90;82.60;;;;;;5072763;28;20460;-53
2022/07/22 11:56:09;;;;;;;10.23;4.70;;;28.00;82.00;;;;;;5070997;28;20794;-53
2022/07/22 11:58:39;;;;;;;4.60;4.20;;;28.00;81.50;;;;;;5072231;28;20435;-53
2022/07/22 12:01:07;;;;;;;5.60;4.07;;;28.10;80.80;;;;;;5072484;28;20442;-53
2022/07/22 12:03:35;;;;;;;4.33;3.93;;;28.10;81.50;;;;;;5072514;28;20449;-52
2022/07/22 12:06:03;;;;;;;3.87;3.50;;;28.10;80.90;;;;;;5072263;28;20437;-52
2022/07/22 12:08:30;;;;;;;4.40;3.70;;;28.10;79.90;;;;;;5069594;28;21020;-51
2022/07/22 12:10:59;;;;;;;3.77;3.47;;;28.10;79.80;;;;;;5071766;28;20778;-52
2022/07/22 12:13:31;;;;;;;5.47;3.30;;;28.20;79.40;;;;;;5070287;28;20476;-51
2022/07/22 12:15:59;;;;;;;3.60;3.30;;;28.20;79.00;;;;;;5071861;28;20443;-51
2022/07/22 12:18:28;;;;;;;4.17;3.77;;;28.10;79.10;;;;;;5071476;28;20756;-52
2022/07/22 12:20:56;;;;;;;4.30;3.70;;;28.00;78.90;;;;;;5072051;28;20425;-52
2022/07/22 12:23:27;;;;;;;4.60;3.50;;;27.90;79.00;;;;;;5070099;28;20473;-53
2022/07/22 12:25:56;;;;;;;4.80;3.87;;;28.00;79.00;;;;;;5072079;28;20442;-52
2022/07/22 12:28:27;;;;;;;4.90;4.00;;;28.00;78.70;;;;;;5071530;28;20461;-52
2022/07/22 12:30:56;;;;;;;3.83;3.53;;;28.00;78.60;;;;;;5071152;28;20451;-54
2022/07/22 12:33:24;;;;;;;4.87;3.30;;;28.00;78.20;;;;;;5071202;28;20457;-53
2022/07/22 12:36:03;;;;;;;3.73;3.30;;;28.10;78.00;;;;;;5071323;28;20433;-52
2022/07/22 12:38:30;;;;;;;5.40;4.90;;;28.20;78.10;;;;;;5071259;28;20522;-52
2022/07/22 12:40:57;;;;;;;3.90;3.50;;;28.10;78.50;;;;;;5069697;28;20448;-52
2022/07/22 12:43:28;;;;;;;5.40;3.33;;;28.10;78.90;;;;;;5071438;28;21011;-53
2022/07/22 12:46:03;;;;;;;14.57;4.33;;;28.00;78.70;;;;;;5069794;28;20442;-52
2022/07/22 12:48:30;;;;;;;4.37;3.57;;;27.70;79.00;;;;;;5071464;28;20823;-52
2022/07/22 12:50:59;;;;;;;3.90;3.50;;;27.40;79.70;;;;;;5070018;28;20438;-52
2022/07/22 12:53:29;;;;;;;8.63;4.40;;;27.20;80.80;;;;;;5070101;28;20469;-52
2022/07/22 12:55:58;;;;;;;6.53;3.20;;;27.10;81.00;;;;;;5071366;28;20918;-53